SWA4012 KLAS-KLBB
Flight info
| Callsign | SWA4012 |
|---|---|
| Flight time | 1h 40m |
| Altitude | 41000 |
| Route | NIITZ4 SSKEE CNX VANSS |
| Aircraft | B738/M-SADE2E3GIJ4RWZ/LB1D1 |
Departure
| Time | 2026-05-08 22:03 |
|---|---|
| Airport | Harry Reid International Airport (KLAS) |
Arrival
| Time | 2026-05-08 23:44 |
|---|---|
| Airport | Lubbock Preston Smith International Airport (KLBB) |
| Time | Latitude | Longitude | Altitude | Speed | Heading |
|---|---|---|---|---|---|
| 2026-05-08 21:44 | 36.08095 | -115.14605 | 2113 ft | 0 kts | 247° |
| 2026-05-08 21:56 | 36.08103 | -115.14581 | 2112 ft | 2 kts | 247° |
| 2026-05-08 21:56 | 36.08109 | -115.14566 | 2112 ft | 0 kts | 247° |
| 2026-05-08 21:56 | 36.08113 | -115.14554 | 2112 ft | 2 kts | 234° |
| 2026-05-08 21:56 | 36.08124 | -115.14542 | 2111 ft | 2 kts | 213° |
| 2026-05-08 21:57 | 36.08138 | -115.14534 | 2111 ft | 2 kts | 191° |
| 2026-05-08 21:57 | 36.08152 | -115.14533 | 2110 ft | 2 kts | 171° |
| 2026-05-08 21:57 | 36.08162 | -115.14536 | 2110 ft | 0 kts | 158° |
| 2026-05-08 21:57 | 36.08168 | -115.14539 | 2110 ft | 0 kts | 155° |
| 2026-05-08 21:59 | 36.08133 | -115.14520 | 2111 ft | 13 kts | 156° |
| 2026-05-08 21:59 | 36.08024 | -115.14484 | 2112 ft | 19 kts | 179° |
| 2026-05-08 22:00 | 36.07863 | -115.14475 | 2114 ft | 21 kts | 149° |
| 2026-05-08 22:00 | 36.07825 | -115.14275 | 2109 ft | 31 kts | 90° |
| 2026-05-08 22:00 | 36.07828 | -115.13987 | 2100 ft | 37 kts | 91° |
| 2026-05-08 22:00 | 36.07828 | -115.13626 | 2091 ft | 43 kts | 90° |
| 2026-05-08 22:01 | 36.07826 | -115.13257 | 2081 ft | 40 kts | 90° |
| 2026-05-08 22:01 | 36.07828 | -115.12930 | 2072 ft | 36 kts | 90° |
| 2026-05-08 22:01 | 36.07829 | -115.12626 | 2066 ft | 35 kts | 90° |
| 2026-05-08 22:01 | 36.07828 | -115.12342 | 2061 ft | 26 kts | 90° |
| 2026-05-08 22:02 | 36.07769 | -115.12176 | 2060 ft | 15 kts | 130° |
| 2026-05-08 22:02 | 36.07729 | -115.12134 | 2060 ft | 10 kts | 156° |
| 2026-05-08 22:02 | 36.07643 | -115.12169 | 2062 ft | 15 kts | 263° |
| 2026-05-08 22:02 | 36.07643 | -115.12395 | 2066 ft | 56 kts | 270° |
| 2026-05-08 22:03 | 36.07642 | -115.13192 | 2083 ft | 127 kts | 270° |
| 2026-05-08 22:03 | 36.07642 | -115.14524 | 2140 ft | 180 kts | 270° |
| 2026-05-08 22:03 | 36.07654 | -115.16045 | 2943 ft | 175 kts | 272° |
| 2026-05-08 22:03 | 36.07649 | -115.17575 | 3483 ft | 185 kts | 270° |
| 2026-05-08 22:04 | 36.07639 | -115.19205 | 3929 ft | 198 kts | 270° |
| 2026-05-08 22:04 | 36.07597 | -115.20945 | 4396 ft | 209 kts | 265° |
| 2026-05-08 22:04 | 36.07370 | -115.22797 | 4789 ft | 227 kts | 260° |
| 2026-05-08 22:04 | 36.06871 | -115.24713 | 5213 ft | 247 kts | 242° |
| 2026-05-08 22:05 | 36.05713 | -115.26344 | 5752 ft | 262 kts | 215° |
| 2026-05-08 22:05 | 36.04050 | -115.27335 | 6271 ft | 277 kts | 202° |
| 2026-05-08 22:05 | 36.02190 | -115.28108 | 6923 ft | 287 kts | 195° |
| 2026-05-08 22:05 | 36.00213 | -115.28398 | 7670 ft | 292 kts | 180° |
| 2026-05-08 22:06 | 35.98203 | -115.27887 | 8086 ft | 302 kts | 155° |
| 2026-05-08 22:06 | 35.96524 | -115.26423 | 9116 ft | 296 kts | 139° |
| 2026-05-08 22:06 | 35.94990 | -115.24721 | 9936 ft | 301 kts | 139° |
| 2026-05-08 22:06 | 35.93432 | -115.23006 | 10679 ft | 310 kts | 139° |
| 2026-05-08 22:07 | 35.91797 | -115.21163 | 11245 ft | 327 kts | 135° |
| 2026-05-08 22:07 | 35.90322 | -115.18951 | 11835 ft | 343 kts | 125° |
| 2026-05-08 22:07 | 35.89021 | -115.16404 | 12394 ft | 360 kts | 120° |
| 2026-05-08 22:07 | 35.87789 | -115.13652 | 12960 ft | 375 kts | 115° |
| 2026-05-08 22:08 | 35.86980 | -115.10560 | 13643 ft | 386 kts | 99° |
| 2026-05-08 22:08 | 35.86788 | -115.07266 | 14583 ft | 389 kts | 89° |
| 2026-05-08 22:08 | 35.86865 | -115.03966 | 15480 ft | 393 kts | 86° |
| 2026-05-08 22:08 | 35.87044 | -115.00598 | 16365 ft | 397 kts | 84° |
| 2026-05-08 22:09 | 35.87265 | -114.97195 | 17204 ft | 402 kts | 83° |
| 2026-05-08 22:09 | 35.87490 | -114.93768 | 18032 ft | 407 kts | 83° |
| 2026-05-08 22:09 | 35.87708 | -114.90272 | 18799 ft | 413 kts | 84° |
| 2026-05-08 22:09 | 35.87915 | -114.86725 | 19586 ft | 419 kts | 84° |
| 2026-05-08 22:10 | 35.88116 | -114.83138 | 20373 ft | 424 kts | 84° |
| 2026-05-08 22:10 | 35.88312 | -114.79509 | 21148 ft | 429 kts | 84° |
| 2026-05-08 22:10 | 35.88506 | -114.75862 | 21881 ft | 434 kts | 84° |
| 2026-05-08 22:10 | 35.88702 | -114.72139 | 22616 ft | 439 kts | 84° |
| 2026-05-08 22:11 | 35.88899 | -114.68378 | 23330 ft | 444 kts | 84° |
| 2026-05-08 22:11 | 35.89097 | -114.64579 | 24069 ft | 449 kts | 84° |
| 2026-05-08 22:11 | 35.89299 | -114.60692 | 24762 ft | 454 kts | 84° |
| 2026-05-08 22:11 | 35.89500 | -114.56798 | 25405 ft | 459 kts | 84° |
| 2026-05-08 22:12 | 35.89701 | -114.52872 | 26088 ft | 462 kts | 84° |
| 2026-05-08 22:12 | 35.89841 | -114.48903 | 26692 ft | 468 kts | 86° |
| 2026-05-08 22:12 | 35.89870 | -114.44944 | 27327 ft | 472 kts | 88° |
| 2026-05-08 22:12 | 35.89832 | -114.40843 | 27976 ft | 476 kts | 89° |
| 2026-05-08 22:13 | 35.89771 | -114.36799 | 28587 ft | 480 kts | 89° |
| 2026-05-08 22:13 | 35.89704 | -114.32661 | 29190 ft | 483 kts | 90° |
| 2026-05-08 22:13 | 35.89644 | -114.28550 | 29933 ft | 483 kts | 89° |
| 2026-05-08 22:13 | 35.89590 | -114.24427 | 30819 ft | 479 kts | 89° |
| 2026-05-08 22:14 | 35.89545 | -114.20368 | 31555 ft | 477 kts | 89° |
| 2026-05-08 22:14 | 35.89506 | -114.16264 | 32262 ft | 476 kts | 89° |
| 2026-05-08 22:14 | 35.89469 | -114.12234 | 32916 ft | 475 kts | 89° |
| 2026-05-08 22:14 | 35.89434 | -114.08155 | 33543 ft | 474 kts | 89° |
| 2026-05-08 22:15 | 35.89399 | -114.04123 | 34237 ft | 473 kts | 89° |
| 2026-05-08 22:15 | 35.89364 | -114.00085 | 34990 ft | 470 kts | 89° |
| 2026-05-08 22:15 | 35.89329 | -113.96055 | 35669 ft | 468 kts | 89° |
| 2026-05-08 22:15 | 35.89293 | -113.92095 | 36327 ft | 466 kts | 89° |
| 2026-05-08 22:16 | 35.89256 | -113.88110 | 36983 ft | 464 kts | 89° |
| 2026-05-08 22:16 | 35.89217 | -113.84113 | 37561 ft | 464 kts | 89° |
| 2026-05-08 22:16 | 35.89177 | -113.80099 | 38084 ft | 464 kts | 89° |
| 2026-05-08 22:16 | 35.89135 | -113.76148 | 38641 ft | 462 kts | 89° |
| 2026-05-08 22:17 | 35.89091 | -113.72159 | 39108 ft | 462 kts | 88° |
| 2026-05-08 22:17 | 35.89001 | -113.64166 | 39145 ft | 465 kts | 88° |
| 2026-05-08 22:18 | 35.88895 | -113.56271 | 39123 ft | 462 kts | 89° |
| 2026-05-08 22:18 | 35.88303 | -113.48313 | 39112 ft | 465 kts | 96° |
| 2026-05-08 22:19 | 35.87207 | -113.40482 | 39140 ft | 465 kts | 98° |
| 2026-05-08 22:19 | 35.86012 | -113.32707 | 39177 ft | 465 kts | 99° |
| 2026-05-08 22:20 | 35.84816 | -113.24846 | 39213 ft | 465 kts | 99° |
| 2026-05-08 22:20 | 35.83649 | -113.17024 | 39233 ft | 466 kts | 98° |
| 2026-05-08 22:21 | 35.82496 | -113.09235 | 39247 ft | 465 kts | 98° |
| 2026-05-08 22:21 | 35.81343 | -113.01405 | 39255 ft | 466 kts | 98° |
| 2026-05-08 22:22 | 35.80186 | -112.93539 | 39266 ft | 466 kts | 98° |
| 2026-05-08 22:22 | 35.79024 | -112.85686 | 39627 ft | 471 kts | 98° |
| 2026-05-08 22:22 | 35.78433 | -112.81702 | 39942 ft | 471 kts | 98° |
| 2026-05-08 22:23 | 35.77851 | -112.77799 | 40243 ft | 468 kts | 98° |
| 2026-05-08 22:23 | 35.77266 | -112.73886 | 40549 ft | 466 kts | 98° |
| 2026-05-08 22:23 | 35.76676 | -112.69949 | 40861 ft | 465 kts | 98° |
| 2026-05-08 22:23 | 35.76096 | -112.66077 | 41167 ft | 466 kts | 98° |
| 2026-05-08 22:24 | 35.75501 | -112.62103 | 41250 ft | 469 kts | 98° |
| 2026-05-08 22:24 | 35.74333 | -112.54308 | 41255 ft | 464 kts | 98° |
| 2026-05-08 22:25 | 35.73154 | -112.46487 | 41251 ft | 464 kts | 98° |
| 2026-05-08 22:25 | 35.71977 | -112.38719 | 41247 ft | 464 kts | 98° |
| 2026-05-08 22:26 | 35.70793 | -112.30923 | 41240 ft | 465 kts | 98° |
| 2026-05-08 22:26 | 35.69600 | -112.23096 | 41240 ft | 467 kts | 98° |
| 2026-05-08 22:27 | 35.68406 | -112.15308 | 41247 ft | 466 kts | 98° |
| 2026-05-08 22:27 | 35.67202 | -112.07512 | 41251 ft | 466 kts | 98° |
| 2026-05-08 22:28 | 35.65980 | -111.99646 | 41259 ft | 466 kts | 98° |
| 2026-05-08 22:28 | 35.64766 | -111.91859 | 41271 ft | 466 kts | 98° |
| 2026-05-08 22:29 | 35.63546 | -111.84068 | 41273 ft | 466 kts | 98° |
| 2026-05-08 22:29 | 35.62264 | -111.76263 | 41278 ft | 468 kts | 99° |
| 2026-05-08 22:30 | 35.60860 | -111.68454 | 41267 ft | 468 kts | 100° |
| 2026-05-08 22:30 | 35.59438 | -111.60712 | 41248 ft | 468 kts | 100° |
| 2026-05-08 22:31 | 35.58018 | -111.52932 | 41234 ft | 468 kts | 100° |
| 2026-05-08 22:31 | 35.56603 | -111.45132 | 41223 ft | 469 kts | 100° |
| 2026-05-08 22:32 | 35.55192 | -111.37371 | 41205 ft | 468 kts | 99° |
| 2026-05-08 22:32 | 35.53760 | -111.29514 | 41186 ft | 468 kts | 100° |
| 2026-05-08 22:33 | 35.52338 | -111.21733 | 41171 ft | 469 kts | 100° |
| 2026-05-08 22:33 | 35.50904 | -111.13925 | 41177 ft | 469 kts | 100° |
| 2026-05-08 22:34 | 35.49459 | -111.06095 | 41182 ft | 469 kts | 100° |
| 2026-05-08 22:34 | 35.48018 | -110.98302 | 41180 ft | 469 kts | 100° |
| 2026-05-08 22:35 | 35.46569 | -110.90494 | 41175 ft | 470 kts | 100° |
| 2026-05-08 22:35 | 35.45114 | -110.82688 | 41183 ft | 470 kts | 100° |
| 2026-05-08 22:36 | 35.43660 | -110.74930 | 41183 ft | 470 kts | 100° |
| 2026-05-08 22:36 | 35.42193 | -110.67124 | 41192 ft | 470 kts | 100° |
| 2026-05-08 22:37 | 35.40716 | -110.59302 | 41194 ft | 470 kts | 100° |
| 2026-05-08 22:37 | 35.39245 | -110.51514 | 41199 ft | 470 kts | 100° |
| 2026-05-08 22:38 | 35.37768 | -110.43746 | 41207 ft | 471 kts | 100° |
| 2026-05-08 22:38 | 35.36269 | -110.35886 | 41217 ft | 470 kts | 99° |
| 2026-05-08 22:39 | 35.34787 | -110.28130 | 41230 ft | 471 kts | 100° |
| 2026-05-08 22:39 | 35.33291 | -110.20339 | 41231 ft | 471 kts | 101° |
| 2026-05-08 22:40 | 35.31781 | -110.12532 | 41235 ft | 470 kts | 100° |
| 2026-05-08 22:40 | 35.30279 | -110.04788 | 41225 ft | 470 kts | 100° |
| 2026-05-08 22:41 | 35.28764 | -109.96986 | 41236 ft | 470 kts | 100° |
| 2026-05-08 22:41 | 35.27250 | -109.89215 | 41234 ft | 471 kts | 100° |
| 2026-05-08 22:42 | 35.25735 | -109.81475 | 41229 ft | 472 kts | 100° |
| 2026-05-08 22:42 | 35.24200 | -109.73657 | 41226 ft | 471 kts | 100° |
| 2026-05-08 22:43 | 35.22670 | -109.65897 | 41230 ft | 471 kts | 100° |
| 2026-05-08 22:43 | 35.21130 | -109.58111 | 41238 ft | 471 kts | 100° |
| 2026-05-08 22:44 | 35.19593 | -109.50365 | 41245 ft | 471 kts | 100° |
| 2026-05-08 22:44 | 35.18047 | -109.42602 | 41247 ft | 472 kts | 100° |
| 2026-05-08 22:45 | 35.16488 | -109.34811 | 41246 ft | 472 kts | 101° |
| 2026-05-08 22:45 | 35.14925 | -109.27032 | 41243 ft | 472 kts | 101° |
| 2026-05-08 22:46 | 35.13358 | -109.19263 | 41256 ft | 471 kts | 100° |
| 2026-05-08 22:46 | 35.11793 | -109.11536 | 41244 ft | 470 kts | 100° |
| 2026-05-08 22:47 | 35.10226 | -109.03812 | 41216 ft | 471 kts | 101° |
| 2026-05-08 22:47 | 35.08652 | -108.96074 | 41183 ft | 471 kts | 100° |
| 2026-05-08 22:48 | 35.07078 | -108.88361 | 41182 ft | 471 kts | 100° |
| 2026-05-08 22:48 | 35.05487 | -108.80595 | 41202 ft | 471 kts | 100° |
| 2026-05-08 22:49 | 35.03896 | -108.72871 | 41233 ft | 472 kts | 100° |
| 2026-05-08 22:49 | 35.01503 | -108.61289 | 41282 ft | 470 kts | 100° |
| 2026-05-08 22:50 | 34.99908 | -108.53609 | 41294 ft | 470 kts | 100° |
| 2026-05-08 22:50 | 34.98300 | -108.45883 | 41315 ft | 470 kts | 100° |
| 2026-05-08 22:51 | 34.96696 | -108.38200 | 41308 ft | 469 kts | 100° |
| 2026-05-08 22:51 | 34.95081 | -108.30515 | 41330 ft | 470 kts | 101° |
| 2026-05-08 22:52 | 34.93453 | -108.22801 | 41329 ft | 470 kts | 101° |
| 2026-05-08 22:52 | 34.91822 | -108.15073 | 41327 ft | 469 kts | 101° |
| 2026-05-08 22:53 | 34.90197 | -108.07385 | 41332 ft | 469 kts | 101° |
| 2026-05-08 22:53 | 34.88565 | -107.99695 | 41328 ft | 470 kts | 101° |
| 2026-05-08 22:54 | 34.86934 | -107.92044 | 41332 ft | 469 kts | 101° |
| 2026-05-08 22:54 | 34.85292 | -107.84370 | 41328 ft | 469 kts | 101° |
| 2026-05-08 22:55 | 34.83641 | -107.76685 | 41324 ft | 469 kts | 101° |
| 2026-05-08 22:55 | 34.81999 | -107.69061 | 41315 ft | 468 kts | 101° |
| 2026-05-08 22:56 | 34.80349 | -107.61423 | 41289 ft | 468 kts | 101° |
| 2026-05-08 22:56 | 34.78680 | -107.53719 | 41273 ft | 468 kts | 101° |
| 2026-05-08 22:57 | 34.77021 | -107.46090 | 41240 ft | 467 kts | 101° |
| 2026-05-08 22:57 | 34.75364 | -107.38494 | 41239 ft | 468 kts | 101° |
| 2026-05-08 22:58 | 34.73689 | -107.30838 | 41250 ft | 468 kts | 102° |
| 2026-05-08 22:58 | 34.72015 | -107.23219 | 41235 ft | 468 kts | 102° |
| 2026-05-08 22:59 | 34.70336 | -107.15610 | 41210 ft | 467 kts | 102° |
| 2026-05-08 22:59 | 34.68659 | -107.08032 | 41174 ft | 468 kts | 102° |
| 2026-05-08 23:00 | 34.66970 | -107.00429 | 41136 ft | 467 kts | 102° |
| 2026-05-08 23:00 | 34.65278 | -106.92815 | 41117 ft | 467 kts | 101° |
| 2026-05-08 23:01 | 34.64432 | -106.89012 | 40970 ft | 469 kts | 101° |
| 2026-05-08 23:01 | 34.63585 | -106.85210 | 40687 ft | 466 kts | 101° |
| 2026-05-08 23:01 | 34.62732 | -106.81403 | 40401 ft | 463 kts | 101° |
| 2026-05-08 23:01 | 34.61885 | -106.77631 | 40104 ft | 462 kts | 101° |
| 2026-05-08 23:02 | 34.61053 | -106.73931 | 39822 ft | 461 kts | 101° |
| 2026-05-08 23:02 | 34.60206 | -106.70163 | 39514 ft | 461 kts | 101° |
| 2026-05-08 23:02 | 34.59358 | -106.66396 | 39201 ft | 461 kts | 101° |
| 2026-05-08 23:02 | 34.58517 | -106.62668 | 38893 ft | 461 kts | 101° |
| 2026-05-08 23:03 | 34.57667 | -106.58907 | 38588 ft | 462 kts | 101° |
| 2026-05-08 23:03 | 34.56814 | -106.55136 | 38283 ft | 467 kts | 101° |
| 2026-05-08 23:03 | 34.55954 | -106.51334 | 37980 ft | 468 kts | 101° |
| 2026-05-08 23:03 | 34.55092 | -106.47523 | 37676 ft | 468 kts | 101° |
| 2026-05-08 23:04 | 34.54232 | -106.43742 | 37380 ft | 467 kts | 101° |
| 2026-05-08 23:04 | 34.53365 | -106.39941 | 37075 ft | 468 kts | 101° |
| 2026-05-08 23:04 | 34.52494 | -106.36131 | 36773 ft | 467 kts | 101° |
| 2026-05-08 23:04 | 34.51631 | -106.32352 | 36476 ft | 467 kts | 101° |
| 2026-05-08 23:05 | 34.50766 | -106.28567 | 36181 ft | 468 kts | 101° |
| 2026-05-08 23:05 | 34.49889 | -106.24734 | 35885 ft | 468 kts | 101° |
| 2026-05-08 23:05 | 34.49025 | -106.20967 | 35586 ft | 469 kts | 101° |
| 2026-05-08 23:05 | 34.48145 | -106.17136 | 35291 ft | 468 kts | 102° |
| 2026-05-08 23:06 | 34.47279 | -106.13385 | 34997 ft | 469 kts | 102° |
| 2026-05-08 23:06 | 34.46402 | -106.09579 | 34706 ft | 469 kts | 102° |
| 2026-05-08 23:06 | 34.45521 | -106.05765 | 34424 ft | 471 kts | 102° |
| 2026-05-08 23:06 | 34.44642 | -106.01958 | 34145 ft | 472 kts | 102° |
| 2026-05-08 23:07 | 34.43756 | -105.98132 | 33867 ft | 471 kts | 102° |
| 2026-05-08 23:07 | 34.42876 | -105.94336 | 33599 ft | 473 kts | 102° |
| 2026-05-08 23:07 | 34.41988 | -105.90510 | 33330 ft | 474 kts | 102° |
| 2026-05-08 23:07 | 34.41093 | -105.86659 | 33060 ft | 473 kts | 102° |
| 2026-05-08 23:08 | 34.40209 | -105.82860 | 32792 ft | 474 kts | 102° |
| 2026-05-08 23:08 | 34.39316 | -105.79032 | 32528 ft | 474 kts | 102° |
| 2026-05-08 23:08 | 34.38421 | -105.75201 | 32261 ft | 475 kts | 102° |
| 2026-05-08 23:08 | 34.37517 | -105.71341 | 31995 ft | 475 kts | 102° |
| 2026-05-08 23:09 | 34.36657 | -105.67488 | 31730 ft | 475 kts | 100° |
| 2026-05-08 23:09 | 34.35932 | -105.63595 | 31466 ft | 474 kts | 97° |
| 2026-05-08 23:09 | 34.35318 | -105.59744 | 31206 ft | 474 kts | 96° |
| 2026-05-08 23:09 | 34.34747 | -105.55827 | 30938 ft | 474 kts | 96° |
| 2026-05-08 23:10 | 34.34192 | -105.51877 | 30677 ft | 476 kts | 96° |
| 2026-05-08 23:10 | 34.33640 | -105.47957 | 30417 ft | 476 kts | 96° |
| 2026-05-08 23:10 | 34.33075 | -105.44016 | 30152 ft | 476 kts | 96° |
| 2026-05-08 23:10 | 34.32506 | -105.40105 | 29892 ft | 477 kts | 96° |
| 2026-05-08 23:11 | 34.31924 | -105.36171 | 29631 ft | 476 kts | 96° |
| 2026-05-08 23:11 | 34.31337 | -105.32244 | 29371 ft | 477 kts | 96° |
| 2026-05-08 23:11 | 34.30740 | -105.28285 | 29112 ft | 477 kts | 97° |
| 2026-05-08 23:11 | 34.30146 | -105.24379 | 28853 ft | 477 kts | 97° |
| 2026-05-08 23:12 | 34.29546 | -105.20442 | 28595 ft | 478 kts | 97° |
| 2026-05-08 23:12 | 34.28943 | -105.16502 | 28342 ft | 479 kts | 97° |
| 2026-05-08 23:12 | 34.28333 | -105.12532 | 28080 ft | 480 kts | 97° |
| 2026-05-08 23:12 | 34.27730 | -105.08613 | 27822 ft | 480 kts | 97° |
| 2026-05-08 23:13 | 34.27114 | -105.04616 | 27565 ft | 480 kts | 97° |
| 2026-05-08 23:13 | 34.26507 | -105.00688 | 27308 ft | 481 kts | 97° |
| 2026-05-08 23:13 | 34.25890 | -104.96702 | 27046 ft | 481 kts | 97° |
| 2026-05-08 23:13 | 34.25275 | -104.92746 | 26788 ft | 481 kts | 97° |
| 2026-05-08 23:14 | 34.24661 | -104.88802 | 26535 ft | 481 kts | 97° |
| 2026-05-08 23:14 | 34.24044 | -104.84847 | 26281 ft | 482 kts | 97° |
| 2026-05-08 23:14 | 34.23423 | -104.80871 | 26021 ft | 483 kts | 97° |
| 2026-05-08 23:14 | 34.22800 | -104.76897 | 25766 ft | 483 kts | 97° |
| 2026-05-08 23:15 | 34.22172 | -104.72897 | 25508 ft | 483 kts | 97° |
| 2026-05-08 23:15 | 34.21554 | -104.68962 | 25253 ft | 482 kts | 97° |
| 2026-05-08 23:15 | 34.20929 | -104.64996 | 24994 ft | 479 kts | 97° |
| 2026-05-08 23:15 | 34.20303 | -104.61040 | 24737 ft | 477 kts | 97° |
| 2026-05-08 23:16 | 34.19678 | -104.57104 | 24477 ft | 476 kts | 97° |
| 2026-05-08 23:16 | 34.19060 | -104.53211 | 24205 ft | 475 kts | 97° |
| 2026-05-08 23:16 | 34.18446 | -104.49348 | 23934 ft | 471 kts | 97° |
| 2026-05-08 23:16 | 34.17827 | -104.45471 | 23663 ft | 469 kts | 97° |
| 2026-05-08 23:17 | 34.17211 | -104.41621 | 23393 ft | 466 kts | 97° |
| 2026-05-08 23:17 | 34.16600 | -104.37807 | 23125 ft | 465 kts | 97° |
| 2026-05-08 23:17 | 34.15990 | -104.34001 | 22856 ft | 463 kts | 98° |
| 2026-05-08 23:17 | 34.15379 | -104.30199 | 22589 ft | 462 kts | 98° |
| 2026-05-08 23:18 | 34.14768 | -104.26404 | 22322 ft | 460 kts | 98° |
| 2026-05-08 23:18 | 34.14162 | -104.22649 | 22061 ft | 459 kts | 98° |
| 2026-05-08 23:18 | 34.13548 | -104.18847 | 21797 ft | 457 kts | 98° |
| 2026-05-08 23:18 | 34.12948 | -104.15143 | 21540 ft | 455 kts | 98° |
| 2026-05-08 23:19 | 34.12341 | -104.11395 | 21278 ft | 454 kts | 98° |
| 2026-05-08 23:19 | 34.11733 | -104.07645 | 21016 ft | 453 kts | 98° |
| 2026-05-08 23:19 | 34.11131 | -104.03954 | 20758 ft | 450 kts | 98° |
| 2026-05-08 23:19 | 34.10532 | -104.00288 | 20505 ft | 448 kts | 98° |
| 2026-05-08 23:20 | 34.09932 | -103.96619 | 20250 ft | 447 kts | 98° |
| 2026-05-08 23:20 | 34.09325 | -103.92911 | 19990 ft | 447 kts | 98° |
| 2026-05-08 23:20 | 34.08727 | -103.89256 | 19733 ft | 446 kts | 97° |
| 2026-05-08 23:20 | 34.08126 | -103.85605 | 19480 ft | 444 kts | 97° |
| 2026-05-08 23:21 | 34.07532 | -103.82007 | 19230 ft | 441 kts | 98° |
| 2026-05-08 23:21 | 34.06927 | -103.78348 | 18977 ft | 441 kts | 98° |
| 2026-05-08 23:21 | 34.06328 | -103.74741 | 18725 ft | 440 kts | 98° |
| 2026-05-08 23:21 | 34.05731 | -103.71143 | 18470 ft | 437 kts | 98° |
| 2026-05-08 23:22 | 34.05142 | -103.67589 | 18222 ft | 435 kts | 98° |
| 2026-05-08 23:22 | 34.04552 | -103.64017 | 17973 ft | 435 kts | 97° |
| 2026-05-08 23:22 | 34.03959 | -103.60447 | 17722 ft | 433 kts | 97° |
| 2026-05-08 23:22 | 34.03372 | -103.56934 | 17473 ft | 432 kts | 98° |
| 2026-05-08 23:23 | 34.02741 | -103.53394 | 17224 ft | 431 kts | 99° |
| 2026-05-08 23:23 | 34.02049 | -103.49895 | 16980 ft | 431 kts | 100° |
| 2026-05-08 23:23 | 34.01313 | -103.46367 | 16733 ft | 431 kts | 101° |
| 2026-05-08 23:23 | 34.00573 | -103.42883 | 16487 ft | 429 kts | 101° |
| 2026-05-08 23:24 | 33.99820 | -103.39446 | 16248 ft | 428 kts | 102° |
| 2026-05-08 23:24 | 33.99068 | -103.35989 | 16006 ft | 427 kts | 101° |
| 2026-05-08 23:24 | 33.98378 | -103.32492 | 15759 ft | 425 kts | 101° |
| 2026-05-08 23:24 | 33.97741 | -103.29069 | 15515 ft | 423 kts | 100° |
| 2026-05-08 23:25 | 33.97110 | -103.25604 | 15267 ft | 421 kts | 101° |
| 2026-05-08 23:25 | 33.96494 | -103.22164 | 15025 ft | 421 kts | 100° |
| 2026-05-08 23:25 | 33.95889 | -103.18726 | 14781 ft | 419 kts | 100° |
| 2026-05-08 23:25 | 33.95305 | -103.15334 | 14539 ft | 417 kts | 100° |
| 2026-05-08 23:26 | 33.94729 | -103.11896 | 14298 ft | 416 kts | 99° |
| 2026-05-08 23:26 | 33.94217 | -103.08516 | 14059 ft | 416 kts | 98° |
| 2026-05-08 23:26 | 33.93735 | -103.05100 | 13819 ft | 414 kts | 98° |
| 2026-05-08 23:26 | 33.93271 | -103.01687 | 13579 ft | 414 kts | 98° |
| 2026-05-08 23:27 | 33.92816 | -102.98251 | 13340 ft | 413 kts | 98° |
| 2026-05-08 23:27 | 33.92376 | -102.94849 | 13102 ft | 411 kts | 98° |
| 2026-05-08 23:27 | 33.91917 | -102.91489 | 12857 ft | 409 kts | 99° |
| 2026-05-08 23:27 | 33.91411 | -102.88112 | 12609 ft | 408 kts | 99° |
| 2026-05-08 23:28 | 33.90891 | -102.84758 | 12370 ft | 408 kts | 99° |
| 2026-05-08 23:28 | 33.90371 | -102.81451 | 12129 ft | 406 kts | 99° |
| 2026-05-08 23:28 | 33.89841 | -102.78110 | 11887 ft | 404 kts | 100° |
| 2026-05-08 23:28 | 33.89321 | -102.74831 | 11649 ft | 402 kts | 99° |
| 2026-05-08 23:29 | 33.88797 | -102.71515 | 11408 ft | 401 kts | 99° |
| 2026-05-08 23:29 | 33.88279 | -102.68249 | 11173 ft | 399 kts | 99° |
| 2026-05-08 23:29 | 33.87762 | -102.65042 | 10936 ft | 383 kts | 99° |
| 2026-05-08 23:29 | 33.87254 | -102.61935 | 10695 ft | 368 kts | 99° |
| 2026-05-08 23:30 | 33.86768 | -102.58989 | 10460 ft | 354 kts | 99° |
| 2026-05-08 23:30 | 33.86292 | -102.56138 | 10234 ft | 342 kts | 99° |
| 2026-05-08 23:30 | 33.85827 | -102.53407 | 10107 ft | 327 kts | 99° |
| 2026-05-08 23:30 | 33.85383 | -102.50818 | 10008 ft | 306 kts | 99° |
| 2026-05-08 23:31 | 33.84938 | -102.48326 | 9600 ft | 303 kts | 100° |
| 2026-05-08 23:31 | 33.84491 | -102.45879 | 9316 ft | 297 kts | 99° |
| 2026-05-08 23:31 | 33.84055 | -102.43455 | 9118 ft | 298 kts | 99° |
| 2026-05-08 23:31 | 33.83625 | -102.41046 | 8878 ft | 295 kts | 99° |
| 2026-05-08 23:32 | 33.83199 | -102.38663 | 8645 ft | 293 kts | 99° |
| 2026-05-08 23:32 | 33.82770 | -102.36263 | 8409 ft | 292 kts | 99° |
| 2026-05-08 23:32 | 33.82341 | -102.33878 | 8176 ft | 292 kts | 100° |
| 2026-05-08 23:32 | 33.81914 | -102.31523 | 7944 ft | 290 kts | 99° |
| 2026-05-08 23:33 | 33.81482 | -102.29134 | 7707 ft | 289 kts | 99° |
| 2026-05-08 23:33 | 33.81057 | -102.26787 | 7474 ft | 289 kts | 99° |
| 2026-05-08 23:33 | 33.80629 | -102.24456 | 7242 ft | 287 kts | 100° |
| 2026-05-08 23:33 | 33.80201 | -102.22114 | 7009 ft | 287 kts | 99° |
| 2026-05-08 23:34 | 33.79820 | -102.19746 | 6774 ft | 288 kts | 97° |
| 2026-05-08 23:34 | 33.79493 | -102.17409 | 6542 ft | 286 kts | 97° |
| 2026-05-08 23:34 | 33.79171 | -102.15051 | 6308 ft | 285 kts | 96° |
| 2026-05-08 23:34 | 33.78848 | -102.12711 | 6075 ft | 284 kts | 96° |
| 2026-05-08 23:35 | 33.78519 | -102.10385 | 5843 ft | 282 kts | 97° |
| 2026-05-08 23:35 | 33.78186 | -102.08033 | 5606 ft | 284 kts | 96° |
| 2026-05-08 23:35 | 33.77863 | -102.05701 | 5372 ft | 283 kts | 97° |
| 2026-05-08 23:35 | 33.77550 | -102.03388 | 5141 ft | 285 kts | 97° |
| 2026-05-08 23:36 | 33.77246 | -102.01047 | 4906 ft | 282 kts | 97° |
| 2026-05-08 23:36 | 33.76952 | -101.98744 | 4672 ft | 279 kts | 96° |
| 2026-05-08 23:36 | 33.76658 | -101.96460 | 4580 ft | 278 kts | 97° |
| 2026-05-08 23:36 | 33.76372 | -101.94143 | 4569 ft | 279 kts | 96° |
| 2026-05-08 23:37 | 33.76112 | -101.91848 | 4569 ft | 277 kts | 96° |
| 2026-05-08 23:37 | 33.75864 | -101.89539 | 4569 ft | 278 kts | 95° |
| 2026-05-08 23:37 | 33.75625 | -101.87267 | 4570 ft | 278 kts | 95° |
| 2026-05-08 23:37 | 33.75383 | -101.84966 | 4571 ft | 278 kts | 95° |
| 2026-05-08 23:38 | 33.75140 | -101.82664 | 4571 ft | 278 kts | 95° |
| 2026-05-08 23:38 | 33.74898 | -101.80356 | 4569 ft | 279 kts | 95° |
| 2026-05-08 23:38 | 33.74656 | -101.78044 | 4568 ft | 278 kts | 95° |
| 2026-05-08 23:38 | 33.74412 | -101.75744 | 4568 ft | 278 kts | 95° |
| 2026-05-08 23:39 | 33.74170 | -101.73435 | 4566 ft | 278 kts | 95° |
| 2026-05-08 23:39 | 33.73931 | -101.71128 | 4569 ft | 278 kts | 95° |
| 2026-05-08 23:39 | 33.73694 | -101.68831 | 4562 ft | 274 kts | 95° |
| 2026-05-08 23:39 | 33.73339 | -101.66679 | 4548 ft | 260 kts | 111° |
| 2026-05-08 23:40 | 33.72237 | -101.65060 | 4553 ft | 247 kts | 149° |
| 2026-05-08 23:40 | 33.70639 | -101.64520 | 4566 ft | 232 kts | 177° |
| 2026-05-08 23:40 | 33.69087 | -101.64514 | 4575 ft | 215 kts | 181° |
| 2026-05-08 23:40 | 33.67699 | -101.64859 | 4545 ft | 196 kts | 214° |
| 2026-05-08 23:41 | 33.66880 | -101.66026 | 4556 ft | 178 kts | 245° |
| 2026-05-08 23:41 | 33.66367 | -101.67387 | 4574 ft | 177 kts | 256° |
| 2026-05-08 23:41 | 33.66239 | -101.68835 | 4560 ft | 176 kts | 275° |
| 2026-05-08 23:41 | 33.66293 | -101.70319 | 4561 ft | 177 kts | 273° |
| 2026-05-08 23:42 | 33.66266 | -101.71775 | 4497 ft | 175 kts | 270° |
| 2026-05-08 23:42 | 33.66253 | -101.73204 | 4262 ft | 166 kts | 273° |
| 2026-05-08 23:42 | 33.66266 | -101.74568 | 4052 ft | 165 kts | 271° |
| 2026-05-08 23:42 | 33.66243 | -101.75947 | 3847 ft | 165 kts | 271° |
| 2026-05-08 23:43 | 33.66242 | -101.77329 | 3627 ft | 165 kts | 271° |
| 2026-05-08 23:43 | 33.66236 | -101.78712 | 3431 ft | 166 kts | 271° |
| 2026-05-08 23:43 | 33.66232 | -101.80080 | 3267 ft | 161 kts | 271° |
| 2026-05-08 23:43 | 33.66228 | -101.81280 | 3257 ft | 108 kts | 269° |
| 2026-05-08 23:44 | 33.66225 | -101.81887 | 3257 ft | 48 kts | 269° |
| 2026-05-08 23:44 | 33.66222 | -101.82169 | 3261 ft | 23 kts | 269° |
| 2026-05-08 23:44 | 33.66139 | -101.82268 | 3260 ft | 16 kts | 179° |
| 2026-05-08 23:44 | 33.66040 | -101.82288 | 3259 ft | 14 kts | 233° |
| 2026-05-08 23:45 | 33.65998 | -101.82378 | 3257 ft | 13 kts | 196° |
| 2026-05-08 23:45 | 33.65906 | -101.82366 | 3257 ft | 15 kts | 160° |
| 2026-05-08 23:45 | 33.65803 | -101.82297 | 3258 ft | 13 kts | 129° |
| 2026-05-08 23:45 | 33.65760 | -101.82218 | 3260 ft | 6 kts | 150° |
| 2026-05-08 23:46 | 33.65741 | -101.82207 | 3260 ft | 0 kts | 152° |